sensor_id;sensor_type;location;lat;lon;timestamp;temperature;humidity
43227;DHT22;28839;52.404;9.808;2022-09-29T00:00:44;7.10;99.90
43227;DHT22;28839;52.404;9.808;2022-09-29T00:07:40;7.00;99.90
43227;DHT22;28839;52.404;9.808;2022-09-29T00:14:35;6.80;99.90
43227;DHT22;28839;52.404;9.808;2022-09-29T00:21:29;6.70;99.90
43227;DHT22;28839;52.404;9.808;2022-09-29T00:28:23;6.50;99.90
43227;DHT22;28839;52.404;9.808;2022-09-29T00:35:18;6.50;99.90
43227;DHT22;28839;52.404;9.808;2022-09-29T00:42:12;6.40;99.90
43227;DHT22;28839;52.404;9.808;2022-09-29T00:49:14;6.20;99.90
43227;DHT22;28839;52.404;9.808;2022-09-29T00:56:13;6.10;99.90
43227;DHT22;28839;52.404;9.808;2022-09-29T01:03:10;6.10;99.90
43227;DHT22;28839;52.404;9.808;2022-09-29T01:10:07;5.90;99.90
43227;DHT22;28839;52.404;9.808;2022-09-29T01:17:02;5.80;99.90
43227;DHT22;28839;52.404;9.808;2022-09-29T01:24:13;5.80;99.90
43227;DHT22;28839;52.404;9.808;2022-09-29T01:31:17;5.70;99.90
43227;DHT22;28839;52.404;9.808;2022-09-29T01:38:26;5.60;99.90
43227;DHT22;28839;52.404;9.808;2022-09-29T01:45:28;5.50;99.90
43227;DHT22;28839;52.404;9.808;2022-09-29T01:52:29;5.40;99.90
43227;DHT22;28839;52.404;9.808;2022-09-29T01:59:27;5.40;99.90
43227;DHT22;28839;52.404;9.808;2022-09-29T02:06:25;5.30;99.90
43227;DHT22;28839;52.404;9.808;2022-09-29T02:13:23;5.20;99.90
43227;DHT22;28839;52.404;9.808;2022-09-29T02:20:17;5.20;99.90
43227;DHT22;28839;52.404;9.808;2022-09-29T02:27:12;5.10;99.90
43227;DHT22;28839;52.404;9.808;2022-09-29T02:34:09;5.10;99.90
43227;DHT22;28839;52.404;9.808;2022-09-29T02:41:09;5.10;99.90
43227;DHT22;28839;52.404;9.808;2022-09-29T02:48:26;5.00;99.90
43227;DHT22;28839;52.404;9.808;2022-09-29T02:55:31;5.10;99.90
43227;DHT22;28839;52.404;9.808;2022-09-29T03:02:27;5.00;99.90
43227;DHT22;28839;52.404;9.808;2022-09-29T03:09:21;4.90;99.90
43227;DHT22;28839;52.404;9.808;2022-09-29T03:16:16;4.80;99.90
43227;DHT22;28839;52.404;9.808;2022-09-29T03:23:10;4.90;99.90
43227;DHT22;28839;52.404;9.808;2022-09-29T03:30:05;4.80;99.90
43227;DHT22;28839;52.404;9.808;2022-09-29T03:37:00;4.80;99.90
43227;DHT22;28839;52.404;9.808;2022-09-29T03:43:54;4.70;99.90
43227;DHT22;28839;52.404;9.808;2022-09-29T03:50:49;4.60;99.90
43227;DHT22;28839;52.404;9.808;2022-09-29T03:57:44;4.60;99.90
43227;DHT22;28839;52.404;9.808;2022-09-29T04:04:38;4.60;99.90
43227;DHT22;28839;52.404;9.808;2022-09-29T04:11:32;4.50;99.90
43227;DHT22;28839;52.404;9.808;2022-09-29T04:18:28;4.50;99.90
43227;DHT22;28839;52.404;9.808;2022-09-29T04:25:23;4.40;99.90
43227;DHT22;28839;52.404;9.808;2022-09-29T04:32:17;4.40;99.90
43227;DHT22;28839;52.404;9.808;2022-09-29T04:39:12;4.70;99.90
43227;DHT22;28839;52.404;9.808;2022-09-29T04:46:07;4.80;99.90
43227;DHT22;28839;52.404;9.808;2022-09-29T04:53:01;4.90;99.90
43227;DHT22;28839;52.404;9.808;2022-09-29T04:59:56;4.90;99.90
43227;DHT22;28839;52.404;9.808;2022-09-29T05:06:50;4.90;99.90
43227;DHT22;28839;52.404;9.808;2022-09-29T05:13:46;4.90;99.90
43227;DHT22;28839;52.404;9.808;2022-09-29T05:20:42;4.80;99.90
43227;DHT22;28839;52.404;9.808;2022-09-29T05:27:36;4.70;99.90
43227;DHT22;28839;52.404;9.808;2022-09-29T05:34:30;4.70;99.90
43227;DHT22;28839;52.404;9.808;2022-09-29T05:41:25;4.80;99.90
43227;DHT22;28839;52.404;9.808;2022-09-29T05:48:19;4.80;99.90
43227;DHT22;28839;52.404;9.808;2022-09-29T05:55:13;4.90;99.90
43227;DHT22;28839;52.404;9.808;2022-09-29T06:02:09;5.10;99.90
43227;DHT22;28839;52.404;9.808;2022-09-29T06:09:03;5.30;99.90
43227;DHT22;28839;52.404;9.808;2022-09-29T06:15:57;6.00;99.90
43227;DHT22;28839;52.404;9.808;2022-09-29T06:22:54;7.20;99.90
43227;DHT22;28839;52.404;9.808;2022-09-29T06:29:47;7.50;99.90
43227;DHT22;28839;52.404;9.808;2022-09-29T06:36:43;7.70;99.90
43227;DHT22;28839;52.404;9.808;2022-09-29T06:44:11;8.20;99.90
43227;DHT22;28839;52.404;9.808;2022-09-29T06:51:06;8.20;99.90
43227;DHT22;28839;52.404;9.808;2022-09-29T06:58:00;7.80;99.90
43227;DHT22;28839;52.404;9.808;2022-09-29T07:04:55;7.80;99.90
43227;DHT22;28839;52.404;9.808;2022-09-29T07:11:50;7.80;99.90
43227;DHT22;28839;52.404;9.808;2022-09-29T07:18:52;7.90;99.90
43227;DHT22;28839;52.404;9.808;2022-09-29T07:25:48;8.00;99.90
43227;DHT22;28839;52.404;9.808;2022-09-29T07:32:43;8.30;99.90
43227;DHT22;28839;52.404;9.808;2022-09-29T07:39:37;8.50;99.90
43227;DHT22;28839;52.404;9.808;2022-09-29T07:46:33;8.60;99.90
43227;DHT22;28839;52.404;9.808;2022-09-29T07:53:29;8.80;99.90
43227;DHT22;28839;52.404;9.808;2022-09-29T08:00:28;9.00;99.90
43227;DHT22;28839;52.404;9.808;2022-09-29T08:07:25;9.20;99.90
43227;DHT22;28839;52.404;9.808;2022-09-29T08:14:37;9.50;99.90
43227;DHT22;28839;52.404;9.808;2022-09-29T08:21:36;9.50;99.90
43227;DHT22;28839;52.404;9.808;2022-09-29T08:28:36;9.80;99.90
43227;DHT22;28839;52.404;9.808;2022-09-29T08:35:30;10.00;99.90
43227;DHT22;28839;52.404;9.808;2022-09-29T08:42:28;10.20;99.90
43227;DHT22;28839;52.404;9.808;2022-09-29T08:49:31;10.20;99.90
43227;DHT22;28839;52.404;9.808;2022-09-29T08:56:26;10.40;99.90
43227;DHT22;28839;52.404;9.808;2022-09-29T09:03:45;10.70;99.90
43227;DHT22;28839;52.404;9.808;2022-09-29T09:10:44;11.00;99.90
43227;DHT22;28839;52.404;9.808;2022-09-29T09:17:55;11.10;99.90
43227;DHT22;28839;52.404;9.808;2022-09-29T09:24:56;11.10;99.90
43227;DHT22;28839;52.404;9.808;2022-09-29T09:31:54;11.40;99.90
43227;DHT22;28839;52.404;9.808;2022-09-29T09:38:57;11.50;99.90
43227;DHT22;28839;52.404;9.808;2022-09-29T09:45:56;11.60;99.90
43227;DHT22;28839;52.404;9.808;2022-09-29T09:53:04;11.70;99.90
43227;DHT22;28839;52.404;9.808;2022-09-29T10:00:08;12.30;99.90
43227;DHT22;28839;52.404;9.808;2022-09-29T10:07:03;13.60;99.90
43227;DHT22;28839;52.404;9.808;2022-09-29T10:14:02;13.60;99.90
43227;DHT22;28839;52.404;9.808;2022-09-29T10:20:56;13.60;99.90
43227;DHT22;28839;52.404;9.808;2022-09-29T10:27:53;13.50;99.90
43227;DHT22;28839;52.404;9.808;2022-09-29T10:34:52;13.90;99.90
43227;DHT22;28839;52.404;9.808;2022-09-29T10:41:50;13.90;99.90
43227;DHT22;28839;52.404;9.808;2022-09-29T10:48:46;13.20;99.90
43227;DHT22;28839;52.404;9.808;2022-09-29T10:55:48;13.10;99.90
43227;DHT22;28839;52.404;9.808;2022-09-29T11:02:46;13.20;99.90
43227;DHT22;28839;52.404;9.808;2022-09-29T11:09:42;13.00;99.90
43227;DHT22;28839;52.404;9.808;2022-09-29T11:16:40;12.70;99.90
43227;DHT22;28839;52.404;9.808;2022-09-29T11:23:48;12.70;99.90
43227;DHT22;28839;52.404;9.808;2022-09-29T11:30:55;12.80;99.90
43227;DHT22;28839;52.404;9.808;2022-09-29T11:38:11;12.80;99.90
43227;DHT22;28839;52.404;9.808;2022-09-29T11:45:11;12.90;99.90
43227;DHT22;28839;52.404;9.808;2022-09-29T11:52:32;13.60;99.90
43227;DHT22;28839;52.404;9.808;2022-09-29T11:59:59;13.60;99.90
43227;DHT22;28839;52.404;9.808;2022-09-29T12:07:03;13.50;99.90
43227;DHT22;28839;52.404;9.808;2022-09-29T12:14:04;13.40;99.90
43227;DHT22;28839;52.404;9.808;2022-09-29T12:21:00;13.50;99.90
43227;DHT22;28839;52.404;9.808;2022-09-29T12:27:59;13.50;99.90
43227;DHT22;28839;52.404;9.808;2022-09-29T12:34:56;13.50;99.90
43227;DHT22;28839;52.404;9.808;2022-09-29T12:41:57;14.10;99.90
43227;DHT22;28839;52.404;9.808;2022-09-29T12:49:00;13.90;99.90
43227;DHT22;28839;52.404;9.808;2022-09-29T12:55:57;14.10;99.90
43227;DHT22;28839;52.404;9.808;2022-09-29T13:03:13;14.20;99.90
43227;DHT22;28839;52.404;9.808;2022-09-29T13:18:10;14.30;99.90
43227;DHT22;28839;52.404;9.808;2022-09-29T13:25:19;14.20;99.90
43227;DHT22;28839;52.404;9.808;2022-09-29T13:32:14;14.00;99.90
43227;DHT22;28839;52.404;9.808;2022-09-29T13:39:20;13.80;99.90
43227;DHT22;28839;52.404;9.808;2022-09-29T13:46:25;13.90;99.90
43227;DHT22;28839;52.404;9.808;2022-09-29T13:53:31;14.00;99.90
43227;DHT22;28839;52.404;9.808;2022-09-29T14:00:30;13.90;99.90
43227;DHT22;28839;52.404;9.808;2022-09-29T14:07:39;14.10;99.90
43227;DHT22;28839;52.404;9.808;2022-09-29T14:14:36;14.50;99.90
43227;DHT22;28839;52.404;9.808;2022-09-29T14:21:53;14.40;99.90
43227;DHT22;28839;52.404;9.808;2022-09-29T14:28:51;14.50;99.90
43227;DHT22;28839;52.404;9.808;2022-09-29T14:35:52;14.20;99.90
43227;DHT22;28839;52.404;9.808;2022-09-29T14:43:04;14.20;99.90
43227;DHT22;28839;52.404;9.808;2022-09-29T14:57:53;14.60;99.90
43227;DHT22;28839;52.404;9.808;2022-09-29T15:04:52;14.70;99.90
43227;DHT22;28839;52.404;9.808;2022-09-29T15:11:49;14.60;99.90
43227;DHT22;28839;52.404;9.808;2022-09-29T15:18:58;14.40;99.90
43227;DHT22;28839;52.404;9.808;2022-09-29T15:25:55;14.80;99.90
43227;DHT22;28839;52.404;9.808;2022-09-29T15:32:51;14.70;99.90
43227;DHT22;28839;52.404;9.808;2022-09-29T15:39:50;14.70;99.90
43227;DHT22;28839;52.404;9.808;2022-09-29T15:46:47;14.40;99.90
43227;DHT22;28839;52.404;9.808;2022-09-29T15:53:41;14.60;99.90
43227;DHT22;28839;52.404;9.808;2022-09-29T16:00:45;14.40;99.90
43227;DHT22;28839;52.404;9.808;2022-09-29T16:07:47;14.00;99.90
43227;DHT22;28839;52.404;9.808;2022-09-29T16:14:43;13.80;99.90
43227;DHT22;28839;52.404;9.808;2022-09-29T16:21:41;13.50;99.90
43227;DHT22;28839;52.404;9.808;2022-09-29T16:28:37;13.00;99.90
43227;DHT22;28839;52.404;9.808;2022-09-29T16:35:57;12.80;99.90
43227;DHT22;28839;52.404;9.808;2022-09-29T16:42:55;12.50;99.90
43227;DHT22;28839;52.404;9.808;2022-09-29T16:49:52;12.10;99.90
43227;DHT22;28839;52.404;9.808;2022-09-29T16:56:48;11.80;99.90
43227;DHT22;28839;52.404;9.808;2022-09-29T17:03:43;11.50;99.90
43227;DHT22;28839;52.404;9.808;2022-09-29T17:10:37;11.30;99.90
43227;DHT22;28839;52.404;9.808;2022-09-29T17:17:31;10.90;99.90
43227;DHT22;28839;52.404;9.808;2022-09-29T17:24:28;10.60;99.90
43227;DHT22;28839;52.404;9.808;2022-09-29T17:31:22;10.40;99.90
43227;DHT22;28839;52.404;9.808;2022-09-29T17:38:16;10.20;99.90
43227;DHT22;28839;52.404;9.808;2022-09-29T17:45:16;10.00;99.90
43227;DHT22;28839;52.404;9.808;2022-09-29T17:52:10;9.80;99.90
43227;DHT22;28839;52.404;9.808;2022-09-29T17:59:07;9.60;99.90
43227;DHT22;28839;52.404;9.808;2022-09-29T18:06:04;9.40;99.90
43227;DHT22;28839;52.404;9.808;2022-09-29T18:12:58;9.20;99.90
43227;DHT22;28839;52.404;9.808;2022-09-29T18:19:52;9.00;99.90
43227;DHT22;28839;52.404;9.808;2022-09-29T18:26:47;8.90;99.90
43227;DHT22;28839;52.404;9.808;2022-09-29T18:33:41;8.90;99.90
43227;DHT22;28839;52.404;9.808;2022-09-29T18:40:35;8.70;99.90
43227;DHT22;28839;52.404;9.808;2022-09-29T18:47:31;8.60;99.90
43227;DHT22;28839;52.404;9.808;2022-09-29T18:54:25;8.40;99.90
43227;DHT22;28839;52.404;9.808;2022-09-29T19:01:22;8.30;99.90
43227;DHT22;28839;52.404;9.808;2022-09-29T19:08:20;8.20;99.90
43227;DHT22;28839;52.404;9.808;2022-09-29T19:15:16;8.10;99.90
43227;DHT22;28839;52.404;9.808;2022-09-29T19:22:10;8.00;99.90
43227;DHT22;28839;52.404;9.808;2022-09-29T19:29:05;7.80;99.90
43227;DHT22;28839;52.404;9.808;2022-09-29T19:36:03;7.80;99.90
43227;DHT22;28839;52.404;9.808;2022-09-29T19:42:57;7.70;99.90
43227;DHT22;28839;52.404;9.808;2022-09-29T19:49:55;7.70;99.90
43227;DHT22;28839;52.404;9.808;2022-09-29T19:57:11;7.70;99.90
43227;DHT22;28839;52.404;9.808;2022-09-29T20:04:06;7.70;99.90
43227;DHT22;28839;52.404;9.808;2022-09-29T20:11:09;7.80;99.90
43227;DHT22;28839;52.404;9.808;2022-09-29T20:18:03;7.90;99.90
43227;DHT22;28839;52.404;9.808;2022-09-29T20:24:57;7.90;99.90
43227;DHT22;28839;52.404;9.808;2022-09-29T20:31:52;7.90;99.90
43227;DHT22;28839;52.404;9.808;2022-09-29T20:38:46;8.00;99.90
43227;DHT22;28839;52.404;9.808;2022-09-29T20:45:40;8.00;99.90
43227;DHT22;28839;52.404;9.808;2022-09-29T20:52:36;8.20;99.90
43227;DHT22;28839;52.404;9.808;2022-09-29T20:59:30;8.30;99.90
43227;DHT22;28839;52.404;9.808;2022-09-29T21:06:26;8.40;99.90
43227;DHT22;28839;52.404;9.808;2022-09-29T21:13:21;8.40;99.90
43227;DHT22;28839;52.404;9.808;2022-09-29T21:20:16;8.50;99.90
43227;DHT22;28839;52.404;9.808;2022-09-29T21:27:10;8.60;99.90
43227;DHT22;28839;52.404;9.808;2022-09-29T21:34:06;8.70;99.90
43227;DHT22;28839;52.404;9.808;2022-09-29T21:41:01;8.80;99.90
43227;DHT22;28839;52.404;9.808;2022-09-29T21:47:55;9.00;99.90
43227;DHT22;28839;52.404;9.808;2022-09-29T21:55:06;9.10;99.90
43227;DHT22;28839;52.404;9.808;2022-09-29T22:01:59;9.10;99.90
43227;DHT22;28839;52.404;9.808;2022-09-29T22:08:54;9.20;99.90
43227;DHT22;28839;52.404;9.808;2022-09-29T22:15:49;9.20;99.90
43227;DHT22;28839;52.404;9.808;2022-09-29T22:22:44;9.10;99.90
43227;DHT22;28839;52.404;9.808;2022-09-29T22:29:37;9.00;99.90
43227;DHT22;28839;52.404;9.808;2022-09-29T22:36:34;9.00;99.90
43227;DHT22;28839;52.404;9.808;2022-09-29T22:43:27;8.90;99.90
43227;DHT22;28839;52.404;9.808;2022-09-29T22:50:23;8.90;99.90
43227;DHT22;28839;52.404;9.808;2022-09-29T22:57:18;8.90;99.90
43227;DHT22;28839;52.404;9.808;2022-09-29T23:04:13;8.80;99.90
43227;DHT22;28839;52.404;9.808;2022-09-29T23:11:07;8.80;99.90
43227;DHT22;28839;52.404;9.808;2022-09-29T23:18:07;8.60;99.90
43227;DHT22;28839;52.404;9.808;2022-09-29T23:25:02;8.50;99.90
43227;DHT22;28839;52.404;9.808;2022-09-29T23:31:57;8.50;99.90
43227;DHT22;28839;52.404;9.808;2022-09-29T23:38:52;8.40;99.90
43227;DHT22;28839;52.404;9.808;2022-09-29T23:46:05;8.40;99.90
43227;DHT22;28839;52.404;9.808;2022-09-29T23:52:59;8.30;99.90
43227;DHT22;28839;52.404;9.808;2022-09-29T23:59:54;8.30;99.90
